sensor_id;sensor_type;location;lat;lon;timestamp;temperature;humidity
85706;DHT22;76142;52.376;9.712;2024-02-15T00:01:01;11.30;99.90
85706;DHT22;76142;52.376;9.712;2024-02-15T00:03:27;11.30;99.90
85706;DHT22;76142;52.376;9.712;2024-02-15T00:05:53;11.30;99.90
85706;DHT22;76142;52.376;9.712;2024-02-15T00:08:19;11.30;99.90
85706;DHT22;76142;52.376;9.712;2024-02-15T00:10:46;11.30;99.90
85706;DHT22;76142;52.376;9.712;2024-02-15T00:13:13;11.30;99.90
85706;DHT22;76142;52.376;9.712;2024-02-15T00:15:39;11.30;99.90
85706;DHT22;76142;52.376;9.712;2024-02-15T00:18:05;11.40;99.90
85706;DHT22;76142;52.376;9.712;2024-02-15T00:20:30;11.40;99.90
85706;DHT22;76142;52.376;9.712;2024-02-15T00:22:59;11.40;99.90
85706;DHT22;76142;52.376;9.712;2024-02-15T00:25:25;11.40;99.90
85706;DHT22;76142;52.376;9.712;2024-02-15T00:27:51;11.40;99.90
85706;DHT22;76142;52.376;9.712;2024-02-15T00:30:18;11.40;99.90
85706;DHT22;76142;52.376;9.712;2024-02-15T00:32:44;11.40;99.90
85706;DHT22;76142;52.376;9.712;2024-02-15T00:35:11;11.40;99.90
85706;DHT22;76142;52.376;9.712;2024-02-15T00:37:40;11.30;99.90
85706;DHT22;76142;52.376;9.712;2024-02-15T00:40:06;11.40;99.90
85706;DHT22;76142;52.376;9.712;2024-02-15T00:42:32;11.30;99.90
85706;DHT22;76142;52.376;9.712;2024-02-15T00:44:58;11.30;99.90
85706;DHT22;76142;52.376;9.712;2024-02-15T00:47:24;11.30;99.90
85706;DHT22;76142;52.376;9.712;2024-02-15T00:49:49;11.30;99.90
85706;DHT22;76142;52.376;9.712;2024-02-15T00:52:18;11.40;99.90
85706;DHT22;76142;52.376;9.712;2024-02-15T00:54:44;11.30;99.90
85706;DHT22;76142;52.376;9.712;2024-02-15T00:57:10;11.40;99.90
85706;DHT22;76142;52.376;9.712;2024-02-15T00:59:36;11.40;99.90
85706;DHT22;76142;52.376;9.712;2024-02-15T01:02:02;11.40;99.90
85706;DHT22;76142;52.376;9.712;2024-02-15T01:04:29;11.30;99.90
85706;DHT22;76142;52.376;9.712;2024-02-15T01:06:55;11.40;99.90
85706;DHT22;76142;52.376;9.712;2024-02-15T01:09:22;11.40;99.90
85706;DHT22;76142;52.376;9.712;2024-02-15T01:11:48;11.40;99.90
85706;DHT22;76142;52.376;9.712;2024-02-15T01:14:14;11.40;99.90
85706;DHT22;76142;52.376;9.712;2024-02-15T01:16:43;11.40;99.90
85706;DHT22;76142;52.376;9.712;2024-02-15T01:19:09;11.40;99.90
85706;DHT22;76142;52.376;9.712;2024-02-15T01:21:35;11.40;99.90
85706;DHT22;76142;52.376;9.712;2024-02-15T01:24:02;11.30;99.90
85706;DHT22;76142;52.376;9.712;2024-02-15T01:26:29;11.40;99.90
85706;DHT22;76142;52.376;9.712;2024-02-15T01:28:55;11.40;99.90
85706;DHT22;76142;52.376;9.712;2024-02-15T01:31:21;11.40;99.90
85706;DHT22;76142;52.376;9.712;2024-02-15T01:33:48;11.30;99.90
85706;DHT22;76142;52.376;9.712;2024-02-15T01:36:14;11.40;99.90
85706;DHT22;76142;52.376;9.712;2024-02-15T01:38:41;11.40;99.90
85706;DHT22;76142;52.376;9.712;2024-02-15T01:41:07;11.40;99.90
85706;DHT22;76142;52.376;9.712;2024-02-15T01:43:33;11.40;99.90
85706;DHT22;76142;52.376;9.712;2024-02-15T01:45:59;11.40;99.90
85706;DHT22;76142;52.376;9.712;2024-02-15T01:48:29;11.40;99.90
85706;DHT22;76142;52.376;9.712;2024-02-15T01:50:56;11.40;99.90
85706;DHT22;76142;52.376;9.712;2024-02-15T01:53:24;11.40;99.90
85706;DHT22;76142;52.376;9.712;2024-02-15T01:55:53;11.50;99.90
85706;DHT22;76142;52.376;9.712;2024-02-15T01:58:20;11.40;99.90
85706;DHT22;76142;52.376;9.712;2024-02-15T02:00:47;11.40;99.90
85706;DHT22;76142;52.376;9.712;2024-02-15T02:03:14;11.40;99.90
85706;DHT22;76142;52.376;9.712;2024-02-15T02:05:42;11.30;99.90
85706;DHT22;76142;52.376;9.712;2024-02-15T02:08:07;11.30;99.90
85706;DHT22;76142;52.376;9.712;2024-02-15T02:10:37;11.40;99.90
85706;DHT22;76142;52.376;9.712;2024-02-15T02:13:02;11.40;99.90
85706;DHT22;76142;52.376;9.712;2024-02-15T02:15:28;11.30;99.90
85706;DHT22;76142;52.376;9.712;2024-02-15T02:17:57;11.30;99.90
85706;DHT22;76142;52.376;9.712;2024-02-15T02:20:25;11.40;99.90
85706;DHT22;76142;52.376;9.712;2024-02-15T02:22:53;11.40;99.90
85706;DHT22;76142;52.376;9.712;2024-02-15T02:25:23;11.40;99.90
85706;DHT22;76142;52.376;9.712;2024-02-15T02:27:52;11.40;99.90
85706;DHT22;76142;52.376;9.712;2024-02-15T02:30:17;11.50;99.90
85706;DHT22;76142;52.376;9.712;2024-02-15T02:32:44;11.50;99.90
85706;DHT22;76142;52.376;9.712;2024-02-15T02:35:11;11.50;99.90
85706;DHT22;76142;52.376;9.712;2024-02-15T02:37:40;11.50;99.90
85706;DHT22;76142;52.376;9.712;2024-02-15T02:40:07;11.50;99.90
85706;DHT22;76142;52.376;9.712;2024-02-15T02:42:45;11.60;99.90
85706;DHT22;76142;52.376;9.712;2024-02-15T02:45:11;11.60;99.90
85706;DHT22;76142;52.376;9.712;2024-02-15T02:47:37;11.60;99.90
85706;DHT22;76142;52.376;9.712;2024-02-15T02:50:03;11.60;99.90
85706;DHT22;76142;52.376;9.712;2024-02-15T02:52:28;11.70;99.90
85706;DHT22;76142;52.376;9.712;2024-02-15T02:54:54;11.70;99.90
85706;DHT22;76142;52.376;9.712;2024-02-15T02:57:19;11.60;99.90
85706;DHT22;76142;52.376;9.712;2024-02-15T02:59:45;11.70;99.90
85706;DHT22;76142;52.376;9.712;2024-02-15T03:02:12;11.70;99.90
85706;DHT22;76142;52.376;9.712;2024-02-15T03:04:38;11.70;99.90
85706;DHT22;76142;52.376;9.712;2024-02-15T03:07:05;11.80;99.90
85706;DHT22;76142;52.376;9.712;2024-02-15T03:09:31;11.80;99.90
85706;DHT22;76142;52.376;9.712;2024-02-15T03:11:56;11.80;99.90
85706;DHT22;76142;52.376;9.712;2024-02-15T03:14:22;11.80;99.90
85706;DHT22;76142;52.376;9.712;2024-02-15T03:16:48;11.80;99.90
85706;DHT22;76142;52.376;9.712;2024-02-15T03:19:14;11.80;99.90
85706;DHT22;76142;52.376;9.712;2024-02-15T03:21:39;11.80;99.90
85706;DHT22;76142;52.376;9.712;2024-02-15T03:24:07;11.80;99.90
85706;DHT22;76142;52.376;9.712;2024-02-15T03:26:33;11.90;99.90
85706;DHT22;76142;52.376;9.712;2024-02-15T03:29:05;11.80;99.90
85706;DHT22;76142;52.376;9.712;2024-02-15T03:31:34;11.90;99.90
85706;DHT22;76142;52.376;9.712;2024-02-15T03:34:03;11.90;99.90
85706;DHT22;76142;52.376;9.712;2024-02-15T03:36:29;11.90;99.90
85706;DHT22;76142;52.376;9.712;2024-02-15T03:38:55;11.90;99.90
85706;DHT22;76142;52.376;9.712;2024-02-15T03:41:21;11.90;99.90
85706;DHT22;76142;52.376;9.712;2024-02-15T03:43:47;11.90;99.90
85706;DHT22;76142;52.376;9.712;2024-02-15T03:46:13;11.90;99.90
85706;DHT22;76142;52.376;9.712;2024-02-15T03:48:43;11.90;99.90
85706;DHT22;76142;52.376;9.712;2024-02-15T03:51:09;11.90;99.90
85706;DHT22;76142;52.376;9.712;2024-02-15T03:53:35;11.90;99.90
85706;DHT22;76142;52.376;9.712;2024-02-15T03:56:04;11.90;99.90
85706;DHT22;76142;52.376;9.712;2024-02-15T03:58:29;11.90;99.90
85706;DHT22;76142;52.376;9.712;2024-02-15T04:00:58;11.90;99.90
85706;DHT22;76142;52.376;9.712;2024-02-15T04:03:24;11.90;99.90
85706;DHT22;76142;52.376;9.712;2024-02-15T04:05:50;11.90;99.90
85706;DHT22;76142;52.376;9.712;2024-02-15T04:08:16;12.00;99.90
85706;DHT22;76142;52.376;9.712;2024-02-15T04:10:42;11.90;99.90
85706;DHT22;76142;52.376;9.712;2024-02-15T04:13:08;12.00;99.90
85706;DHT22;76142;52.376;9.712;2024-02-15T04:15:34;11.90;99.90
85706;DHT22;76142;52.376;9.712;2024-02-15T04:18:00;12.00;99.90
85706;DHT22;76142;52.376;9.712;2024-02-15T04:20:26;12.00;99.90
85706;DHT22;76142;52.376;9.712;2024-02-15T04:22:52;12.00;99.90
85706;DHT22;76142;52.376;9.712;2024-02-15T04:25:19;11.90;99.90
85706;DHT22;76142;52.376;9.712;2024-02-15T04:27:48;12.00;99.90
85706;DHT22;76142;52.376;9.712;2024-02-15T04:30:14;12.00;99.90
85706;DHT22;76142;52.376;9.712;2024-02-15T04:32:41;11.90;99.90
85706;DHT22;76142;52.376;9.712;2024-02-15T04:35:06;12.00;99.90
85706;DHT22;76142;52.376;9.712;2024-02-15T04:37:32;12.00;99.90
85706;DHT22;76142;52.376;9.712;2024-02-15T04:40:00;12.00;99.90
85706;DHT22;76142;52.376;9.712;2024-02-15T04:42:33;12.00;99.90
85706;DHT22;76142;52.376;9.712;2024-02-15T04:45:00;12.00;99.90
85706;DHT22;76142;52.376;9.712;2024-02-15T04:47:26;12.00;99.90
85706;DHT22;76142;52.376;9.712;2024-02-15T04:49:51;12.00;99.90
85706;DHT22;76142;52.376;9.712;2024-02-15T04:52:17;12.00;99.90
85706;DHT22;76142;52.376;9.712;2024-02-15T04:54:43;12.00;99.90
85706;DHT22;76142;52.376;9.712;2024-02-15T04:57:09;12.00;99.90
85706;DHT22;76142;52.376;9.712;2024-02-15T04:59:37;12.00;99.90
85706;DHT22;76142;52.376;9.712;2024-02-15T05:02:03;12.00;99.90
85706;DHT22;76142;52.376;9.712;2024-02-15T05:04:28;12.00;99.90
85706;DHT22;76142;52.376;9.712;2024-02-15T05:06:54;12.00;99.90
85706;DHT22;76142;52.376;9.712;2024-02-15T05:09:21;12.00;99.90
85706;DHT22;76142;52.376;9.712;2024-02-15T05:11:48;12.00;99.90
85706;DHT22;76142;52.376;9.712;2024-02-15T05:14:14;12.00;99.90
85706;DHT22;76142;52.376;9.712;2024-02-15T05:16:47;12.00;99.90
85706;DHT22;76142;52.376;9.712;2024-02-15T05:19:17;12.00;99.90
85706;DHT22;76142;52.376;9.712;2024-02-15T05:21:44;12.10;99.90
85706;DHT22;76142;52.376;9.712;2024-02-15T05:24:14;12.10;99.90
85706;DHT22;76142;52.376;9.712;2024-02-15T05:26:41;12.10;99.90
85706;DHT22;76142;52.376;9.712;2024-02-15T05:29:13;12.10;99.90
85706;DHT22;76142;52.376;9.712;2024-02-15T05:31:38;12.10;99.90
85706;DHT22;76142;52.376;9.712;2024-02-15T05:34:10;12.10;99.90
85706;DHT22;76142;52.376;9.712;2024-02-15T05:36:37;12.10;99.90
85706;DHT22;76142;52.376;9.712;2024-02-15T05:39:04;12.20;99.90
85706;DHT22;76142;52.376;9.712;2024-02-15T05:41:30;12.10;99.90
85706;DHT22;76142;52.376;9.712;2024-02-15T05:43:58;12.10;99.90
85706;DHT22;76142;52.376;9.712;2024-02-15T05:46:23;12.20;99.90
85706;DHT22;76142;52.376;9.712;2024-02-15T05:48:50;12.10;99.90
85706;DHT22;76142;52.376;9.712;2024-02-15T05:51:19;12.10;99.90
85706;DHT22;76142;52.376;9.712;2024-02-15T05:53:45;12.10;99.90
85706;DHT22;76142;52.376;9.712;2024-02-15T05:56:10;12.10;99.90
85706;DHT22;76142;52.376;9.712;2024-02-15T05:58:37;12.10;99.90
85706;DHT22;76142;52.376;9.712;2024-02-15T06:01:03;12.20;99.90
85706;DHT22;76142;52.376;9.712;2024-02-15T06:03:34;12.20;99.90
85706;DHT22;76142;52.376;9.712;2024-02-15T06:06:03;12.10;99.90
85706;DHT22;76142;52.376;9.712;2024-02-15T06:08:35;12.20;99.90
85706;DHT22;76142;52.376;9.712;2024-02-15T06:11:02;12.20;99.90
85706;DHT22;76142;52.376;9.712;2024-02-15T06:13:29;12.10;99.90
85706;DHT22;76142;52.376;9.712;2024-02-15T06:15:54;12.20;99.90
85706;DHT22;76142;52.376;9.712;2024-02-15T06:18:21;12.10;99.90
85706;DHT22;76142;52.376;9.712;2024-02-15T06:20:49;12.10;99.90
85706;DHT22;76142;52.376;9.712;2024-02-15T06:23:19;12.10;99.90
85706;DHT22;76142;52.376;9.712;2024-02-15T06:25:51;12.10;99.90
85706;DHT22;76142;52.376;9.712;2024-02-15T06:28:18;12.10;99.90
85706;DHT22;76142;52.376;9.712;2024-02-15T06:31:03;12.00;99.90
85706;DHT22;76142;52.376;9.712;2024-02-15T06:33:47;12.10;99.90
85706;DHT22;76142;52.376;9.712;2024-02-15T06:36:31;12.10;99.90
85706;DHT22;76142;52.376;9.712;2024-02-15T06:39:15;12.10;99.90
85706;DHT22;76142;52.376;9.712;2024-02-15T06:42:00;12.10;99.90
85706;DHT22;76142;52.376;9.712;2024-02-15T06:44:29;12.10;99.90
85706;DHT22;76142;52.376;9.712;2024-02-15T06:46:55;12.10;99.90
85706;DHT22;76142;52.376;9.712;2024-02-15T06:49:22;12.10;99.90
85706;DHT22;76142;52.376;9.712;2024-02-15T06:51:50;12.10;99.90
85706;DHT22;76142;52.376;9.712;2024-02-15T06:54:16;12.10;99.90
85706;DHT22;76142;52.376;9.712;2024-02-15T06:56:44;12.10;99.90
85706;DHT22;76142;52.376;9.712;2024-02-15T06:59:12;12.20;99.90
85706;DHT22;76142;52.376;9.712;2024-02-15T07:01:42;12.10;99.90
85706;DHT22;76142;52.376;9.712;2024-02-15T07:04:08;12.10;99.90
85706;DHT22;76142;52.376;9.712;2024-02-15T07:06:36;12.10;99.90
85706;DHT22;76142;52.376;9.712;2024-02-15T07:09:04;12.20;99.90
85706;DHT22;76142;52.376;9.712;2024-02-15T07:11:34;12.10;99.90
85706;DHT22;76142;52.376;9.712;2024-02-15T07:14:01;12.20;99.90
85706;DHT22;76142;52.376;9.712;2024-02-15T07:16:26;12.20;99.90
85706;DHT22;76142;52.376;9.712;2024-02-15T07:18:52;12.20;99.90
85706;DHT22;76142;52.376;9.712;2024-02-15T07:21:19;12.10;99.90
85706;DHT22;76142;52.376;9.712;2024-02-15T07:23:46;12.20;99.90
85706;DHT22;76142;52.376;9.712;2024-02-15T07:26:12;12.10;99.90
85706;DHT22;76142;52.376;9.712;2024-02-15T07:28:39;12.10;99.90
85706;DHT22;76142;52.376;9.712;2024-02-15T07:31:06;12.10;99.90
85706;DHT22;76142;52.376;9.712;2024-02-15T07:33:32;12.10;99.90
85706;DHT22;76142;52.376;9.712;2024-02-15T07:36:00;12.10;99.90
85706;DHT22;76142;52.376;9.712;2024-02-15T07:38:26;12.10;99.90
85706;DHT22;76142;52.376;9.712;2024-02-15T07:40:52;12.10;99.90
85706;DHT22;76142;52.376;9.712;2024-02-15T07:43:17;12.10;99.90
85706;DHT22;76142;52.376;9.712;2024-02-15T07:45:43;12.20;99.90
85706;DHT22;76142;52.376;9.712;2024-02-15T07:48:09;12.20;99.90
85706;DHT22;76142;52.376;9.712;2024-02-15T07:50:34;12.20;99.90
85706;DHT22;76142;52.376;9.712;2024-02-15T07:53:03;12.30;99.90
85706;DHT22;76142;52.376;9.712;2024-02-15T07:55:30;12.30;99.90
85706;DHT22;76142;52.376;9.712;2024-02-15T07:57:56;12.20;99.90
85706;DHT22;76142;52.376;9.712;2024-02-15T08:00:24;12.20;99.90
85706;DHT22;76142;52.376;9.712;2024-02-15T08:02:52;12.30;99.90
85706;DHT22;76142;52.376;9.712;2024-02-15T08:05:18;12.30;99.90
85706;DHT22;76142;52.376;9.712;2024-02-15T08:07:45;12.40;99.90
85706;DHT22;76142;52.376;9.712;2024-02-15T08:10:11;12.40;99.90
85706;DHT22;76142;52.376;9.712;2024-02-15T08:12:41;12.40;99.90
85706;DHT22;76142;52.376;9.712;2024-02-15T08:15:08;12.40;99.90
85706;DHT22;76142;52.376;9.712;2024-02-15T08:17:38;12.30;99.90
85706;DHT22;76142;52.376;9.712;2024-02-15T08:20:06;12.40;99.90
85706;DHT22;76142;52.376;9.712;2024-02-15T08:22:33;12.50;99.90
85706;DHT22;76142;52.376;9.712;2024-02-15T08:24:59;12.40;99.90
85706;DHT22;76142;52.376;9.712;2024-02-15T08:27:25;12.50;99.90
85706;DHT22;76142;52.376;9.712;2024-02-15T08:29:51;12.40;99.90
85706;DHT22;76142;52.376;9.712;2024-02-15T08:32:17;12.40;99.90
85706;DHT22;76142;52.376;9.712;2024-02-15T08:34:42;12.50;99.90
85706;DHT22;76142;52.376;9.712;2024-02-15T08:37:08;12.60;99.90
85706;DHT22;76142;52.376;9.712;2024-02-15T08:39:35;12.70;99.90
85706;DHT22;76142;52.376;9.712;2024-02-15T08:42:00;12.70;99.90
85706;DHT22;76142;52.376;9.712;2024-02-15T08:44:26;12.70;99.90
85706;DHT22;76142;52.376;9.712;2024-02-15T08:46:51;12.80;99.90
85706;DHT22;76142;52.376;9.712;2024-02-15T08:49:17;12.80;99.90
85706;DHT22;76142;52.376;9.712;2024-02-15T08:51:43;12.80;99.90
85706;DHT22;76142;52.376;9.712;2024-02-15T08:54:08;12.80;99.90
85706;DHT22;76142;52.376;9.712;2024-02-15T08:56:35;12.90;99.90
85706;DHT22;76142;52.376;9.712;2024-02-15T08:59:01;12.90;99.90
85706;DHT22;76142;52.376;9.712;2024-02-15T09:01:26;12.90;99.90
85706;DHT22;76142;52.376;9.712;2024-02-15T09:03:52;13.00;99.90
85706;DHT22;76142;52.376;9.712;2024-02-15T09:06:18;13.00;99.90
85706;DHT22;76142;52.376;9.712;2024-02-15T09:08:43;13.10;99.90
85706;DHT22;76142;52.376;9.712;2024-02-15T09:11:09;13.00;99.90
85706;DHT22;76142;52.376;9.712;2024-02-15T09:13:38;13.10;99.90
85706;DHT22;76142;52.376;9.712;2024-02-15T09:16:04;13.10;99.90
85706;DHT22;76142;52.376;9.712;2024-02-15T09:18:30;13.10;99.90
85706;DHT22;76142;52.376;9.712;2024-02-15T09:20:56;13.30;99.90
85706;DHT22;76142;52.376;9.712;2024-02-15T09:23:22;13.40;99.90
85706;DHT22;76142;52.376;9.712;2024-02-15T09:25:49;13.40;99.90
85706;DHT22;76142;52.376;9.712;2024-02-15T09:28:17;13.30;99.90
85706;DHT22;76142;52.376;9.712;2024-02-15T09:30:48;13.40;99.90
85706;DHT22;76142;52.376;9.712;2024-02-15T09:33:14;13.40;99.90
85706;DHT22;76142;52.376;9.712;2024-02-15T09:35:39;13.30;99.90
85706;DHT22;76142;52.376;9.712;2024-02-15T09:38:05;13.30;99.90
85706;DHT22;76142;52.376;9.712;2024-02-15T09:40:31;13.40;99.90
85706;DHT22;76142;52.376;9.712;2024-02-15T09:42:57;13.50;99.90
85706;DHT22;76142;52.376;9.712;2024-02-15T09:45:23;13.50;99.90
85706;DHT22;76142;52.376;9.712;2024-02-15T09:47:50;13.50;99.90
85706;DHT22;76142;52.376;9.712;2024-02-15T09:50:17;13.50;99.90
85706;DHT22;76142;52.376;9.712;2024-02-15T09:52:53;13.50;99.90
85706;DHT22;76142;52.376;9.712;2024-02-15T09:55:22;13.50;99.90
85706;DHT22;76142;52.376;9.712;2024-02-15T09:57:50;13.40;99.90
85706;DHT22;76142;52.376;9.712;2024-02-15T10:00:16;13.30;99.90
85706;DHT22;76142;52.376;9.712;2024-02-15T10:02:50;13.30;99.90
85706;DHT22;76142;52.376;9.712;2024-02-15T10:05:18;13.20;99.90
85706;DHT22;76142;52.376;9.712;2024-02-15T10:07:45;13.30;99.90
85706;DHT22;76142;52.376;9.712;2024-02-15T10:10:21;13.20;99.90
85706;DHT22;76142;52.376;9.712;2024-02-15T10:12:47;13.20;99.90
85706;DHT22;76142;52.376;9.712;2024-02-15T10:15:32;13.20;99.90
85706;DHT22;76142;52.376;9.712;2024-02-15T10:18:00;13.30;99.90
85706;DHT22;76142;52.376;9.712;2024-02-15T10:20:26;13.20;99.90
85706;DHT22;76142;52.376;9.712;2024-02-15T10:22:53;13.30;99.90
85706;DHT22;76142;52.376;9.712;2024-02-15T10:25:34;13.20;99.90
85706;DHT22;76142;52.376;9.712;2024-02-15T10:30:37;13.20;99.90
85706;DHT22;76142;52.376;9.712;2024-02-15T10:33:04;13.10;99.90
85706;DHT22;76142;52.376;9.712;2024-02-15T10:35:31;13.00;99.90
85706;DHT22;76142;52.376;9.712;2024-02-15T10:38:10;12.90;99.90
85706;DHT22;76142;52.376;9.712;2024-02-15T10:40:37;12.90;99.90
85706;DHT22;76142;52.376;9.712;2024-02-15T10:43:03;12.80;99.90
85706;DHT22;76142;52.376;9.712;2024-02-15T10:45:35;12.80;99.90
85706;DHT22;76142;52.376;9.712;2024-02-15T10:48:02;12.60;99.90
85706;DHT22;76142;52.376;9.712;2024-02-15T10:50:30;12.50;99.90
85706;DHT22;76142;52.376;9.712;2024-02-15T10:52:57;12.30;99.90
85706;DHT22;76142;52.376;9.712;2024-02-15T10:55:38;12.20;99.90
85706;DHT22;76142;52.376;9.712;2024-02-15T10:58:06;12.10;99.90
85706;DHT22;76142;52.376;9.712;2024-02-15T11:00:33;12.10;99.90
85706;DHT22;76142;52.376;9.712;2024-02-15T11:03:04;12.00;99.90
85706;DHT22;76142;52.376;9.712;2024-02-15T11:05:34;12.10;99.90
85706;DHT22;76142;52.376;9.712;2024-02-15T11:08:02;12.00;99.90
85706;DHT22;76142;52.376;9.712;2024-02-15T11:10:30;12.00;99.90
85706;DHT22;76142;52.376;9.712;2024-02-15T11:12:56;12.00;99.90
85706;DHT22;76142;52.376;9.712;2024-02-15T11:15:45;12.10;99.90
85706;DHT22;76142;52.376;9.712;2024-02-15T11:18:44;12.10;99.90
85706;DHT22;76142;52.376;9.712;2024-02-15T11:21:11;12.10;99.90
85706;DHT22;76142;52.376;9.712;2024-02-15T11:23:37;12.10;99.90
85706;DHT22;76142;52.376;9.712;2024-02-15T11:26:03;12.10;99.90
85706;DHT22;76142;52.376;9.712;2024-02-15T11:30:56;12.10;99.90
85706;DHT22;76142;52.376;9.712;2024-02-15T11:33:32;12.10;99.90
85706;DHT22;76142;52.376;9.712;2024-02-15T11:38:32;12.10;99.90
85706;DHT22;76142;52.376;9.712;2024-02-15T11:41:01;12.10;99.90
85706;DHT22;76142;52.376;9.712;2024-02-15T11:43:51;12.20;99.90
85706;DHT22;76142;52.376;9.712;2024-02-15T11:46:22;12.20;99.90
85706;DHT22;76142;52.376;9.712;2024-02-15T11:48:51;12.20;99.90
85706;DHT22;76142;52.376;9.712;2024-02-15T11:51:31;12.20;99.90
85706;DHT22;76142;52.376;9.712;2024-02-15T11:54:09;12.30;99.90
85706;DHT22;76142;52.376;9.712;2024-02-15T11:56:56;12.20;99.90
85706;DHT22;76142;52.376;9.712;2024-02-15T11:59:42;12.20;99.90
85706;DHT22;76142;52.376;9.712;2024-02-15T12:02:20;12.20;99.90
85706;DHT22;76142;52.376;9.712;2024-02-15T12:05:05;12.30;99.90
85706;DHT22;76142;52.376;9.712;2024-02-15T12:07:50;12.30;99.90
85706;DHT22;76142;52.376;9.712;2024-02-15T12:10:34;12.30;99.90
85706;DHT22;76142;52.376;9.712;2024-02-15T12:13:18;12.30;99.90
85706;DHT22;76142;52.376;9.712;2024-02-15T12:16:03;12.40;99.90
85706;DHT22;76142;52.376;9.712;2024-02-15T12:18:48;12.40;99.90
85706;DHT22;76142;52.376;9.712;2024-02-15T12:21:21;12.30;99.90
85706;DHT22;76142;52.376;9.712;2024-02-15T12:23:49;12.40;99.90
85706;DHT22;76142;52.376;9.712;2024-02-15T12:26:21;12.40;99.90
85706;DHT22;76142;52.376;9.712;2024-02-15T12:28:52;12.30;99.90
85706;DHT22;76142;52.376;9.712;2024-02-15T12:31:23;12.30;99.90
85706;DHT22;76142;52.376;9.712;2024-02-15T12:34:04;12.40;99.90
85706;DHT22;76142;52.376;9.712;2024-02-15T12:36:34;12.40;99.90
85706;DHT22;76142;52.376;9.712;2024-02-15T12:39:03;12.40;99.90
85706;DHT22;76142;52.376;9.712;2024-02-15T12:41:39;12.40;99.90
85706;DHT22;76142;52.376;9.712;2024-02-15T12:44:07;12.30;99.90
85706;DHT22;76142;52.376;9.712;2024-02-15T12:46:34;12.40;99.90
85706;DHT22;76142;52.376;9.712;2024-02-15T12:51:53;12.40;99.90
85706;DHT22;76142;52.376;9.712;2024-02-15T12:54:22;12.40;99.90
85706;DHT22;76142;52.376;9.712;2024-02-15T12:56:48;12.40;99.90
85706;DHT22;76142;52.376;9.712;2024-02-15T12:59:14;12.40;99.90
85706;DHT22;76142;52.376;9.712;2024-02-15T13:01:40;12.50;99.90
85706;DHT22;76142;52.376;9.712;2024-02-15T13:04:06;12.50;99.90
85706;DHT22;76142;52.376;9.712;2024-02-15T13:06:33;12.50;99.90
85706;DHT22;76142;52.376;9.712;2024-02-15T13:09:01;12.60;99.90
85706;DHT22;76142;52.376;9.712;2024-02-15T13:11:30;12.50;99.90
85706;DHT22;76142;52.376;9.712;2024-02-15T13:13:57;12.50;99.90
85706;DHT22;76142;52.376;9.712;2024-02-15T13:16:23;12.50;99.90
85706;DHT22;76142;52.376;9.712;2024-02-15T13:18:49;12.50;99.90
85706;DHT22;76142;52.376;9.712;2024-02-15T13:21:14;12.60;99.90
85706;DHT22;76142;52.376;9.712;2024-02-15T13:23:40;12.60;99.90
85706;DHT22;76142;52.376;9.712;2024-02-15T13:26:06;12.60;99.90
85706;DHT22;76142;52.376;9.712;2024-02-15T13:28:33;12.60;99.90
85706;DHT22;76142;52.376;9.712;2024-02-15T13:30:59;12.70;99.90
85706;DHT22;76142;52.376;9.712;2024-02-15T13:33:25;12.80;99.90
85706;DHT22;76142;52.376;9.712;2024-02-15T13:35:52;12.90;99.90
85706;DHT22;76142;52.376;9.712;2024-02-15T13:38:18;13.00;99.90
85706;DHT22;76142;52.376;9.712;2024-02-15T13:40:49;13.10;99.90
85706;DHT22;76142;52.376;9.712;2024-02-15T13:43:16;13.30;99.90
85706;DHT22;76142;52.376;9.712;2024-02-15T13:45:43;13.50;99.90
85706;DHT22;76142;52.376;9.712;2024-02-15T13:48:10;13.60;99.90
85706;DHT22;76142;52.376;9.712;2024-02-15T13:50:38;13.60;99.90
85706;DHT22;76142;52.376;9.712;2024-02-15T13:53:05;13.80;99.90
85706;DHT22;76142;52.376;9.712;2024-02-15T13:55:31;13.90;99.90
85706;DHT22;76142;52.376;9.712;2024-02-15T13:57:57;13.90;99.90
85706;DHT22;76142;52.376;9.712;2024-02-15T14:00:24;14.00;99.90
85706;DHT22;76142;52.376;9.712;2024-02-15T14:02:56;14.10;99.90
85706;DHT22;76142;52.376;9.712;2024-02-15T14:05:26;14.10;99.90
85706;DHT22;76142;52.376;9.712;2024-02-15T14:08:01;14.10;99.90
85706;DHT22;76142;52.376;9.712;2024-02-15T14:10:32;14.10;99.90
85706;DHT22;76142;52.376;9.712;2024-02-15T14:13:00;14.20;99.90
85706;DHT22;76142;52.376;9.712;2024-02-15T14:15:31;14.20;99.90
85706;DHT22;76142;52.376;9.712;2024-02-15T14:18:12;14.50;99.90
85706;DHT22;76142;52.376;9.712;2024-02-15T14:20:44;14.60;99.90
85706;DHT22;76142;52.376;9.712;2024-02-15T14:23:12;14.50;99.90
85706;DHT22;76142;52.376;9.712;2024-02-15T14:25:41;14.60;99.90
85706;DHT22;76142;52.376;9.712;2024-02-15T14:28:07;14.50;99.90
85706;DHT22;76142;52.376;9.712;2024-02-15T14:30:37;14.50;99.90
85706;DHT22;76142;52.376;9.712;2024-02-15T14:33:23;14.40;99.90
85706;DHT22;76142;52.376;9.712;2024-02-15T14:35:50;14.30;99.90
85706;DHT22;76142;52.376;9.712;2024-02-15T14:38:18;14.30;99.90
85706;DHT22;76142;52.376;9.712;2024-02-15T14:40:48;14.20;99.90
85706;DHT22;76142;52.376;9.712;2024-02-15T14:43:25;14.10;99.90
85706;DHT22;76142;52.376;9.712;2024-02-15T14:45:53;14.10;99.90
85706;DHT22;76142;52.376;9.712;2024-02-15T14:48:21;14.00;99.90
85706;DHT22;76142;52.376;9.712;2024-02-15T14:50:49;13.90;99.90
85706;DHT22;76142;52.376;9.712;2024-02-15T14:53:18;13.80;99.90
85706;DHT22;76142;52.376;9.712;2024-02-15T14:55:44;13.80;99.90
85706;DHT22;76142;52.376;9.712;2024-02-15T14:58:12;13.70;99.90
85706;DHT22;76142;52.376;9.712;2024-02-15T15:00:39;13.70;99.90
85706;DHT22;76142;52.376;9.712;2024-02-15T15:03:07;13.70;99.90
85706;DHT22;76142;52.376;9.712;2024-02-15T15:05:32;13.70;99.90
85706;DHT22;76142;52.376;9.712;2024-02-15T15:08:17;13.70;99.90
85706;DHT22;76142;52.376;9.712;2024-02-15T15:11:01;13.70;99.90
85706;DHT22;76142;52.376;9.712;2024-02-15T15:13:45;13.70;99.90
85706;DHT22;76142;52.376;9.712;2024-02-15T15:16:11;13.60;99.90
85706;DHT22;76142;52.376;9.712;2024-02-15T15:18:40;13.60;99.90
85706;DHT22;76142;52.376;9.712;2024-02-15T15:21:06;13.60;99.90
85706;DHT22;76142;52.376;9.712;2024-02-15T15:23:32;13.60;99.90
85706;DHT22;76142;52.376;9.712;2024-02-15T15:26:00;13.60;99.90
85706;DHT22;76142;52.376;9.712;2024-02-15T15:28:26;13.50;99.90
85706;DHT22;76142;52.376;9.712;2024-02-15T15:30:54;13.60;99.90
85706;DHT22;76142;52.376;9.712;2024-02-15T15:33:20;13.60;99.90
85706;DHT22;76142;52.376;9.712;2024-02-15T15:35:47;13.60;99.90
85706;DHT22;76142;52.376;9.712;2024-02-15T15:38:13;13.60;99.90
85706;DHT22;76142;52.376;9.712;2024-02-15T15:40:39;13.60;99.90
85706;DHT22;76142;52.376;9.712;2024-02-15T15:43:05;13.70;99.90
85706;DHT22;76142;52.376;9.712;2024-02-15T15:45:37;13.70;99.90
85706;DHT22;76142;52.376;9.712;2024-02-15T15:48:03;13.60;99.90